sensor_id;sensor_type;location;lat;lon;timestamp;P1;durP1;ratioP1;P2;durP2;ratioP2
61523;SDS011;47393;38.758;-9.164;2023-03-01T00:25:55;12.18;;;4.20;;
61523;SDS011;47393;38.758;-9.164;2023-03-01T00:28:09;16.20;;;4.78;;
61523;SDS011;47393;38.758;-9.164;2023-03-01T00:30:11;20.55;;;4.15;;
61523;SDS011;47393;38.758;-9.164;2023-03-01T00:32:18;7.95;;;2.75;;
61523;SDS011;47393;38.758;-9.164;2023-03-01T00:34:19;11.77;;;3.95;;
61523;SDS011;47393;38.758;-9.164;2023-03-01T00:36:36;10.82;;;3.75;;
61523;SDS011;47393;38.758;-9.164;2023-03-01T00:38:41;12.60;;;4.35;;
61523;SDS011;47393;38.758;-9.164;2023-03-01T00:40:43;12.63;;;4.47;;
61523;SDS011;47393;38.758;-9.164;2023-03-01T00:45:32;24.25;;;4.25;;
61523;SDS011;47393;38.758;-9.164;2023-03-01T00:48:22;10.15;;;3.67;;
61523;SDS011;47393;38.758;-9.164;2023-03-01T00:53:43;13.88;;;4.75;;
61523;SDS011;47393;38.758;-9.164;2023-03-01T00:55:59;13.88;;;4.32;;
61523;SDS011;47393;38.758;-9.164;2023-03-01T00:58:10;12.40;;;4.22;;
61523;SDS011;47393;38.758;-9.164;2023-03-01T01:00:12;7.72;;;3.50;;
61523;SDS011;47393;38.758;-9.164;2023-03-01T01:02:18;13.80;;;4.70;;
61523;SDS011;47393;38.758;-9.164;2023-03-01T01:04:20;15.07;;;4.90;;
61523;SDS011;47393;38.758;-9.164;2023-03-01T01:06:25;13.30;;;4.43;;
61523;SDS011;47393;38.758;-9.164;2023-03-01T01:08:37;8.38;;;4.03;;
61523;SDS011;47393;38.758;-9.164;2023-03-01T01:10:47;20.85;;;6.00;;
61523;SDS011;47393;38.758;-9.164;2023-03-01T01:12:52;15.48;;;4.35;;
61523;SDS011;47393;38.758;-9.164;2023-03-01T01:14:59;12.55;;;3.50;;
61523;SDS011;47393;38.758;-9.164;2023-03-01T01:17:03;29.92;;;5.53;;
61523;SDS011;47393;38.758;-9.164;2023-03-01T01:19:04;6.55;;;4.20;;
61523;SDS011;47393;38.758;-9.164;2023-03-01T01:21:09;11.73;;;4.43;;
61523;SDS011;47393;38.758;-9.164;2023-03-01T01:23:10;9.80;;;4.60;;
61523;SDS011;47393;38.758;-9.164;2023-03-01T01:25:13;11.85;;;4.38;;
61523;SDS011;47393;38.758;-9.164;2023-03-01T02:09:34;17.10;;;5.25;;
61523;SDS011;47393;38.758;-9.164;2023-03-01T02:12:35;19.17;;;4.97;;
61523;SDS011;47393;38.758;-9.164;2023-03-01T02:19:08;19.88;;;5.35;;
61523;SDS011;47393;38.758;-9.164;2023-03-01T02:22:10;11.85;;;5.05;;
61523;SDS011;47393;38.758;-9.164;2023-03-01T02:30:49;28.73;;;5.60;;
61523;SDS011;47393;38.758;-9.164;2023-03-01T02:38:29;21.08;;;5.10;;
61523;SDS011;47393;38.758;-9.164;2023-03-01T02:41:19;12.48;;;4.95;;
61523;SDS011;47393;38.758;-9.164;2023-03-01T02:44:00;11.18;;;4.95;;
61523;SDS011;47393;38.758;-9.164;2023-03-01T02:56:23;20.08;;;5.65;;
61523;SDS011;47393;38.758;-9.164;2023-03-01T02:58:25;14.15;;;4.60;;
61523;SDS011;47393;38.758;-9.164;2023-03-01T03:00:31;14.65;;;4.82;;
61523;SDS011;47393;38.758;-9.164;2023-03-01T03:02:41;6.97;;;4.88;;
61523;SDS011;47393;38.758;-9.164;2023-03-01T03:07:15;21.60;;;5.53;;
61523;SDS011;47393;38.758;-9.164;2023-03-01T03:09:20;13.82;;;5.68;;
61523;SDS011;47393;38.758;-9.164;2023-03-01T03:11:28;11.38;;;4.93;;
61523;SDS011;47393;38.758;-9.164;2023-03-01T03:13:48;11.57;;;6.35;;
61523;SDS011;47393;38.758;-9.164;2023-03-01T03:17:53;17.77;;;5.53;;
61523;SDS011;47393;38.758;-9.164;2023-03-01T03:22:06;9.95;;;5.55;;
61523;SDS011;47393;38.758;-9.164;2023-03-01T03:24:09;20.02;;;6.63;;
61523;SDS011;47393;38.758;-9.164;2023-03-01T03:26:10;23.33;;;7.47;;
61523;SDS011;47393;38.758;-9.164;2023-03-01T03:28:43;22.77;;;6.45;;
61523;SDS011;47393;38.758;-9.164;2023-03-01T03:31:10;19.35;;;6.45;;
61523;SDS011;47393;38.758;-9.164;2023-03-01T03:33:20;15.07;;;5.95;;
61523;SDS011;47393;38.758;-9.164;2023-03-01T03:35:55;17.85;;;6.72;;
61523;SDS011;47393;38.758;-9.164;2023-03-01T03:46:37;17.75;;;6.55;;
61523;SDS011;47393;38.758;-9.164;2023-03-01T03:49:04;31.60;;;7.70;;
61523;SDS011;47393;38.758;-9.164;2023-03-01T03:51:37;24.08;;;7.68;;
61523;SDS011;47393;38.758;-9.164;2023-03-01T03:54:33;32.35;;;7.07;;
61523;SDS011;47393;38.758;-9.164;2023-03-01T04:00:25;24.15;;;7.28;;
61523;SDS011;47393;38.758;-9.164;2023-03-01T04:12:10;18.45;;;6.35;;
61523;SDS011;47393;38.758;-9.164;2023-03-01T04:15:29;15.77;;;7.20;;
61523;SDS011;47393;38.758;-9.164;2023-03-01T04:40:30;13.75;;;7.50;;
61523;SDS011;47393;38.758;-9.164;2023-03-01T04:45:46;20.73;;;6.95;;
61523;SDS011;47393;38.758;-9.164;2023-03-01T05:03:23;23.38;;;6.65;;
61523;SDS011;47393;38.758;-9.164;2023-03-01T05:05:58;14.48;;;6.75;;
61523;SDS011;47393;38.758;-9.164;2023-03-01T05:08:30;18.00;;;7.28;;
61523;SDS011;47393;38.758;-9.164;2023-03-01T05:10:52;17.55;;;7.57;;
61523;SDS011;47393;38.758;-9.164;2023-03-01T05:17:14;31.90;;;8.13;;
61523;SDS011;47393;38.758;-9.164;2023-03-01T05:26:53;32.30;;;8.07;;
61523;SDS011;47393;38.758;-9.164;2023-03-01T05:29:28;22.00;;;7.30;;
61523;SDS011;47393;38.758;-9.164;2023-03-01T05:34:23;14.98;;;7.90;;
61523;SDS011;47393;38.758;-9.164;2023-03-01T05:36:48;32.08;;;7.03;;
61523;SDS011;47393;38.758;-9.164;2023-03-01T05:38:53;20.35;;;7.85;;
61523;SDS011;47393;38.758;-9.164;2023-03-01T05:43:03;27.40;;;7.32;;
61523;SDS011;47393;38.758;-9.164;2023-03-01T05:45:05;19.45;;;7.78;;
61523;SDS011;47393;38.758;-9.164;2023-03-01T05:47:10;21.95;;;6.88;;
61523;SDS011;47393;38.758;-9.164;2023-03-01T05:49:11;19.95;;;7.07;;
61523;SDS011;47393;38.758;-9.164;2023-03-01T05:51:13;27.23;;;8.10;;
61523;SDS011;47393;38.758;-9.164;2023-03-01T05:53:20;28.40;;;8.95;;
61523;SDS011;47393;38.758;-9.164;2023-03-01T05:55:21;10.30;;;6.30;;
61523;SDS011;47393;38.758;-9.164;2023-03-01T05:57:23;14.40;;;6.50;;
61523;SDS011;47393;38.758;-9.164;2023-03-01T05:59:24;8.38;;;6.57;;
61523;SDS011;47393;38.758;-9.164;2023-03-01T06:01:25;9.30;;;6.55;;
61523;SDS011;47393;38.758;-9.164;2023-03-01T06:03:26;17.70;;;8.13;;
61523;SDS011;47393;38.758;-9.164;2023-03-01T06:05:27;17.98;;;6.55;;
61523;SDS011;47393;38.758;-9.164;2023-03-01T06:07:28;18.02;;;7.28;;
61523;SDS011;47393;38.758;-9.164;2023-03-01T06:09:32;15.07;;;7.15;;
61523;SDS011;47393;38.758;-9.164;2023-03-01T06:23:19;13.75;;;6.93;;
61523;SDS011;47393;38.758;-9.164;2023-03-01T06:26:05;18.83;;;6.95;;
61523;SDS011;47393;38.758;-9.164;2023-03-01T06:28:06;21.45;;;6.88;;
61523;SDS011;47393;38.758;-9.164;2023-03-01T06:30:08;18.40;;;6.88;;
61523;SDS011;47393;38.758;-9.164;2023-03-01T06:32:11;12.57;;;5.83;;
61523;SDS011;47393;38.758;-9.164;2023-03-01T06:34:11;19.67;;;5.97;;
61523;SDS011;47393;38.758;-9.164;2023-03-01T06:36:14;12.93;;;5.68;;
61523;SDS011;47393;38.758;-9.164;2023-03-01T06:38:14;20.73;;;6.15;;
61523;SDS011;47393;38.758;-9.164;2023-03-01T06:40:18;29.25;;;5.95;;
61523;SDS011;47393;38.758;-9.164;2023-03-01T06:42:29;16.25;;;5.35;;
61523;SDS011;47393;38.758;-9.164;2023-03-01T06:44:52;14.88;;;5.95;;
61523;SDS011;47393;38.758;-9.164;2023-03-01T06:47:04;11.73;;;4.85;;
61523;SDS011;47393;38.758;-9.164;2023-03-01T06:49:20;11.20;;;3.97;;
61523;SDS011;47393;38.758;-9.164;2023-03-01T06:51:30;4.53;;;4.10;;
61523;SDS011;47393;38.758;-9.164;2023-03-01T06:53:39;8.32;;;4.45;;
61523;SDS011;47393;38.758;-9.164;2023-03-01T06:55:43;9.70;;;4.53;;
61523;SDS011;47393;38.758;-9.164;2023-03-01T06:57:59;6.43;;;4.00;;
61523;SDS011;47393;38.758;-9.164;2023-03-01T07:00:02;9.93;;;4.10;;
61523;SDS011;47393;38.758;-9.164;2023-03-01T07:02:03;5.93;;;4.10;;
61523;SDS011;47393;38.758;-9.164;2023-03-01T07:04:06;7.10;;;4.47;;
61523;SDS011;47393;38.758;-9.164;2023-03-01T07:06:07;4.72;;;4.35;;
61523;SDS011;47393;38.758;-9.164;2023-03-01T07:08:08;10.45;;;4.57;;
61523;SDS011;47393;38.758;-9.164;2023-03-01T07:10:09;8.07;;;3.90;;
61523;SDS011;47393;38.758;-9.164;2023-03-01T07:14:59;7.55;;;4.53;;
61523;SDS011;47393;38.758;-9.164;2023-03-01T07:17:03;4.55;;;3.80;;
61523;SDS011;47393;38.758;-9.164;2023-03-01T07:19:12;8.40;;;5.18;;
61523;SDS011;47393;38.758;-9.164;2023-03-01T07:21:32;5.38;;;4.30;;
61523;SDS011;47393;38.758;-9.164;2023-03-01T07:23:48;4.70;;;3.65;;
61523;SDS011;47393;38.758;-9.164;2023-03-01T07:25:53;5.45;;;4.43;;
61523;SDS011;47393;38.758;-9.164;2023-03-01T07:27:54;7.43;;;4.25;;
61523;SDS011;47393;38.758;-9.164;2023-03-01T07:29:56;9.55;;;4.05;;
61523;SDS011;47393;38.758;-9.164;2023-03-01T07:31:56;5.35;;;3.53;;
61523;SDS011;47393;38.758;-9.164;2023-03-01T07:34:02;7.22;;;4.03;;
61523;SDS011;47393;38.758;-9.164;2023-03-01T07:36:03;6.43;;;4.35;;
61523;SDS011;47393;38.758;-9.164;2023-03-01T07:38:04;6.65;;;3.45;;
61523;SDS011;47393;38.758;-9.164;2023-03-01T07:40:06;15.07;;;4.25;;
61523;SDS011;47393;38.758;-9.164;2023-03-01T07:42:11;12.98;;;4.97;;
61523;SDS011;47393;38.758;-9.164;2023-03-01T07:44:12;13.80;;;4.30;;
61523;SDS011;47393;38.758;-9.164;2023-03-01T07:46:14;11.55;;;3.20;;
61523;SDS011;47393;38.758;-9.164;2023-03-01T07:48:15;19.58;;;3.58;;
61523;SDS011;47393;38.758;-9.164;2023-03-01T07:50:16;14.63;;;3.50;;
61523;SDS011;47393;38.758;-9.164;2023-03-01T07:52:20;7.97;;;3.22;;
61523;SDS011;47393;38.758;-9.164;2023-03-01T07:54:22;6.78;;;3.13;;
61523;SDS011;47393;38.758;-9.164;2023-03-01T07:56:25;5.20;;;3.78;;
61523;SDS011;47393;38.758;-9.164;2023-03-01T07:58:30;6.75;;;3.83;;
61523;SDS011;47393;38.758;-9.164;2023-03-01T08:00:33;5.35;;;3.00;;
61523;SDS011;47393;38.758;-9.164;2023-03-01T08:02:37;3.80;;;3.50;;
61523;SDS011;47393;38.758;-9.164;2023-03-01T08:04:42;4.82;;;3.78;;
61523;SDS011;47393;38.758;-9.164;2023-03-01T08:06:49;15.05;;;3.78;;
61523;SDS011;47393;38.758;-9.164;2023-03-01T08:08:52;14.70;;;3.72;;
61523;SDS011;47393;38.758;-9.164;2023-03-01T08:11:07;7.57;;;3.97;;
61523;SDS011;47393;38.758;-9.164;2023-03-01T08:15:30;6.68;;;4.38;;
61523;SDS011;47393;38.758;-9.164;2023-03-01T08:17:31;11.88;;;3.80;;
61523;SDS011;47393;38.758;-9.164;2023-03-01T08:19:35;8.80;;;4.22;;
61523;SDS011;47393;38.758;-9.164;2023-03-01T08:23:54;7.78;;;4.15;;
61523;SDS011;47393;38.758;-9.164;2023-03-01T08:26:02;11.60;;;4.15;;
61523;SDS011;47393;38.758;-9.164;2023-03-01T08:28:10;12.20;;;4.35;;
61523;SDS011;47393;38.758;-9.164;2023-03-01T08:30:14;8.85;;;4.03;;
61523;SDS011;47393;38.758;-9.164;2023-03-01T08:32:26;13.18;;;4.00;;
61523;SDS011;47393;38.758;-9.164;2023-03-01T08:34:39;11.13;;;4.57;;
61523;SDS011;47393;38.758;-9.164;2023-03-01T08:36:45;9.73;;;3.88;;
61523;SDS011;47393;38.758;-9.164;2023-03-01T08:39:14;5.53;;;3.80;;
61523;SDS011;47393;38.758;-9.164;2023-03-01T08:41:31;4.07;;;3.70;;
61523;SDS011;47393;38.758;-9.164;2023-03-01T08:43:55;5.05;;;4.30;;
61523;SDS011;47393;38.758;-9.164;2023-03-01T08:46:07;11.88;;;3.60;;
61523;SDS011;47393;38.758;-9.164;2023-03-01T08:48:09;10.50;;;4.07;;
61523;SDS011;47393;38.758;-9.164;2023-03-01T08:50:10;18.30;;;4.40;;
61523;SDS011;47393;38.758;-9.164;2023-03-01T08:52:14;3.78;;;3.50;;
61523;SDS011;47393;38.758;-9.164;2023-03-01T08:54:37;8.05;;;3.50;;
61523;SDS011;47393;38.758;-9.164;2023-03-01T08:56:47;10.50;;;3.45;;
61523;SDS011;47393;38.758;-9.164;2023-03-01T08:58:53;8.80;;;4.28;;
61523;SDS011;47393;38.758;-9.164;2023-03-01T09:01:04;8.32;;;3.83;;
61523;SDS011;47393;38.758;-9.164;2023-03-01T09:03:36;4.22;;;3.83;;
61523;SDS011;47393;38.758;-9.164;2023-03-01T09:06:22;12.63;;;4.00;;
61523;SDS011;47393;38.758;-9.164;2023-03-01T09:09:03;9.65;;;3.88;;
61523;SDS011;47393;38.758;-9.164;2023-03-01T09:11:24;7.05;;;3.63;;
61523;SDS011;47393;38.758;-9.164;2023-03-01T09:13:29;5.40;;;3.22;;
61523;SDS011;47393;38.758;-9.164;2023-03-01T09:15:49;5.22;;;3.92;;
61523;SDS011;47393;38.758;-9.164;2023-03-01T09:17:55;12.63;;;3.97;;
61523;SDS011;47393;38.758;-9.164;2023-03-01T09:20:07;4.07;;;2.95;;
61523;SDS011;47393;38.758;-9.164;2023-03-01T09:22:15;11.10;;;2.95;;
61523;SDS011;47393;38.758;-9.164;2023-03-01T09:24:20;6.47;;;3.03;;
61523;SDS011;47393;38.758;-9.164;2023-03-01T10:58:57;2.80;;;2.60;;
61523;SDS011;47393;38.758;-9.164;2023-03-01T11:01:28;10.85;;;3.03;;
61523;SDS011;47393;38.758;-9.164;2023-03-01T11:03:45;5.70;;;3.05;;
61523;SDS011;47393;38.758;-9.164;2023-03-01T11:06:20;11.20;;;3.03;;
61523;SDS011;47393;38.758;-9.164;2023-03-01T11:08:57;8.35;;;3.42;;
61523;SDS011;47393;38.758;-9.164;2023-03-01T11:11:29;3.92;;;3.58;;
61523;SDS011;47393;38.758;-9.164;2023-03-01T11:28:58;9.68;;;3.50;;
61523;SDS011;47393;38.758;-9.164;2023-03-01T11:31:17;7.95;;;3.22;;
61523;SDS011;47393;38.758;-9.164;2023-03-01T11:35:56;9.65;;;3.33;;
61523;SDS011;47393;38.758;-9.164;2023-03-01T11:38:27;4.30;;;3.00;;
61523;SDS011;47393;38.758;-9.164;2023-03-01T11:45:31;8.43;;;3.22;;
61523;SDS011;47393;38.758;-9.164;2023-03-01T11:50:46;12.32;;;3.03;;
61523;SDS011;47393;38.758;-9.164;2023-03-01T11:52:56;18.00;;;4.30;;
61523;SDS011;47393;38.758;-9.164;2023-03-01T11:57:20;3.55;;;2.78;;
61523;SDS011;47393;38.758;-9.164;2023-03-01T12:07:05;3.13;;;2.38;;
61523;SDS011;47393;38.758;-9.164;2023-03-01T12:11:03;7.65;;;2.80;;
61523;SDS011;47393;38.758;-9.164;2023-03-01T12:15:34;8.57;;;3.47;;
61523;SDS011;47393;38.758;-9.164;2023-03-01T12:22:44;6.50;;;2.95;;
61523;SDS011;47393;38.758;-9.164;2023-03-01T12:35:49;6.22;;;3.42;;
61523;SDS011;47393;38.758;-9.164;2023-03-01T12:49:29;2.42;;;2.22;;
61523;SDS011;47393;38.758;-9.164;2023-03-01T12:51:53;2.35;;;1.90;;
61523;SDS011;47393;38.758;-9.164;2023-03-01T12:54:55;3.65;;;2.28;;
61523;SDS011;47393;38.758;-9.164;2023-03-01T12:56:37;2.55;;;2.33;;
61523;SDS011;47393;38.758;-9.164;2023-03-01T13:07:53;3.15;;;2.33;;
61523;SDS011;47393;38.758;-9.164;2023-03-01T13:16:42;10.70;;;3.13;;
61523;SDS011;47393;38.758;-9.164;2023-03-01T13:18:48;5.63;;;2.35;;
61523;SDS011;47393;38.758;-9.164;2023-03-01T13:21:00;5.07;;;2.83;;
61523;SDS011;47393;38.758;-9.164;2023-03-01T13:25:26;13.38;;;3.13;;
61523;SDS011;47393;38.758;-9.164;2023-03-01T13:27:27;5.18;;;2.83;;
61523;SDS011;47393;38.758;-9.164;2023-03-01T13:29:32;3.92;;;2.83;;
61523;SDS011;47393;38.758;-9.164;2023-03-01T13:33:47;6.10;;;3.58;;
61523;SDS011;47393;38.758;-9.164;2023-03-01T13:35:50;10.13;;;3.50;;
61523;SDS011;47393;38.758;-9.164;2023-03-01T13:37:52;5.43;;;3.17;;
61523;SDS011;47393;38.758;-9.164;2023-03-01T13:39:57;5.28;;;3.03;;
61523;SDS011;47393;38.758;-9.164;2023-03-01T13:44:33;5.75;;;3.05;;
61523;SDS011;47393;38.758;-9.164;2023-03-01T13:46:46;4.50;;;3.17;;
61523;SDS011;47393;38.758;-9.164;2023-03-01T13:48:56;2.47;;;2.38;;
61523;SDS011;47393;38.758;-9.164;2023-03-01T13:51:03;6.72;;;3.25;;
61523;SDS011;47393;38.758;-9.164;2023-03-01T13:53:17;10.35;;;3.40;;
61523;SDS011;47393;38.758;-9.164;2023-03-01T13:58:16;4.78;;;2.65;;
61523;SDS011;47393;38.758;-9.164;2023-03-01T14:00:35;8.30;;;3.38;;
61523;SDS011;47393;38.758;-9.164;2023-03-01T14:05:40;15.48;;;3.75;;
61523;SDS011;47393;38.758;-9.164;2023-03-01T14:07:51;10.18;;;3.47;;
61523;SDS011;47393;38.758;-9.164;2023-03-01T14:10:00;4.00;;;3.22;;
61523;SDS011;47393;38.758;-9.164;2023-03-01T14:16:56;22.65;;;3.67;;
61523;SDS011;47393;38.758;-9.164;2023-03-01T14:19:17;4.88;;;3.45;;
61523;SDS011;47393;38.758;-9.164;2023-03-01T14:21:32;7.43;;;3.58;;
61523;SDS011;47393;38.758;-9.164;2023-03-01T14:23:39;21.23;;;3.30;;
61523;SDS011;47393;38.758;-9.164;2023-03-01T14:25:48;4.60;;;3.10;;
61523;SDS011;47393;38.758;-9.164;2023-03-01T14:27:57;8.05;;;4.05;;
61523;SDS011;47393;38.758;-9.164;2023-03-01T14:29:59;8.90;;;3.60;;
61523;SDS011;47393;38.758;-9.164;2023-03-01T14:32:18;4.05;;;3.42;;
61523;SDS011;47393;38.758;-9.164;2023-03-01T14:34:23;9.02;;;4.43;;
61523;SDS011;47393;38.758;-9.164;2023-03-01T14:36:27;7.70;;;3.83;;
61523;SDS011;47393;38.758;-9.164;2023-03-01T14:38:46;18.98;;;3.70;;
61523;SDS011;47393;38.758;-9.164;2023-03-01T14:40:51;16.33;;;4.03;;
61523;SDS011;47393;38.758;-9.164;2023-03-01T14:42:57;4.38;;;3.40;;
61523;SDS011;47393;38.758;-9.164;2023-03-01T14:45:02;31.77;;;4.70;;
61523;SDS011;47393;38.758;-9.164;2023-03-01T14:47:15;15.38;;;3.92;;
61523;SDS011;47393;38.758;-9.164;2023-03-01T14:51:19;4.97;;;4.18;;
61523;SDS011;47393;38.758;-9.164;2023-03-01T14:53:27;3.92;;;3.72;;
61523;SDS011;47393;38.758;-9.164;2023-03-01T14:55:37;3.50;;;3.20;;
61523;SDS011;47393;38.758;-9.164;2023-03-01T14:57:42;5.45;;;4.22;;
61523;SDS011;47393;38.758;-9.164;2023-03-01T14:59:46;13.13;;;3.75;;
61523;SDS011;47393;38.758;-9.164;2023-03-01T15:01:53;14.35;;;3.22;;
61523;SDS011;47393;38.758;-9.164;2023-03-01T15:03:57;5.18;;;2.70;;
61523;SDS011;47393;38.758;-9.164;2023-03-01T15:06:03;9.18;;;3.88;;
61523;SDS011;47393;38.758;-9.164;2023-03-01T15:08:05;17.63;;;3.75;;
61523;SDS011;47393;38.758;-9.164;2023-03-01T15:10:14;10.38;;;3.65;;
61523;SDS011;47393;38.758;-9.164;2023-03-01T15:12:33;12.05;;;3.08;;
61523;SDS011;47393;38.758;-9.164;2023-03-01T15:14:42;5.93;;;4.07;;
61523;SDS011;47393;38.758;-9.164;2023-03-01T15:16:53;8.65;;;4.03;;
61523;SDS011;47393;38.758;-9.164;2023-03-01T15:21:05;4.30;;;3.60;;
61523;SDS011;47393;38.758;-9.164;2023-03-01T15:23:23;15.63;;;4.28;;
61523;SDS011;47393;38.758;-9.164;2023-03-01T15:25:26;7.57;;;4.32;;
61523;SDS011;47393;38.758;-9.164;2023-03-01T15:27:27;4.38;;;3.85;;
61523;SDS011;47393;38.758;-9.164;2023-03-01T15:29:31;7.80;;;4.25;;
61523;SDS011;47393;38.758;-9.164;2023-03-01T15:31:38;7.10;;;4.45;;
61523;SDS011;47393;38.758;-9.164;2023-03-01T15:33:39;4.68;;;3.70;;
61523;SDS011;47393;38.758;-9.164;2023-03-01T15:35:51;8.07;;;4.30;;
61523;SDS011;47393;38.758;-9.164;2023-03-01T15:37:55;4.43;;;4.03;;
61523;SDS011;47393;38.758;-9.164;2023-03-01T15:40:02;10.82;;;4.47;;
61523;SDS011;47393;38.758;-9.164;2023-03-01T15:42:43;7.10;;;4.07;;
61523;SDS011;47393;38.758;-9.164;2023-03-01T15:44:42;10.07;;;4.60;;
61523;SDS011;47393;38.758;-9.164;2023-03-01T15:46:46;7.47;;;4.03;;
61523;SDS011;47393;38.758;-9.164;2023-03-01T15:48:47;12.60;;;4.72;;
61523;SDS011;47393;38.758;-9.164;2023-03-01T15:50:58;17.85;;;4.15;;
61523;SDS011;47393;38.758;-9.164;2023-03-01T15:52:59;5.40;;;3.88;;
61523;SDS011;47393;38.758;-9.164;2023-03-01T15:55:06;11.48;;;4.55;;
61523;SDS011;47393;38.758;-9.164;2023-03-01T15:57:16;4.95;;;4.20;;
61523;SDS011;47393;38.758;-9.164;2023-03-01T15:59:33;6.88;;;4.55;;
61523;SDS011;47393;38.758;-9.164;2023-03-01T16:02:14;6.70;;;4.50;;
61523;SDS011;47393;38.758;-9.164;2023-03-01T16:04:54;4.57;;;4.05;;
61523;SDS011;47393;38.758;-9.164;2023-03-01T16:07:03;8.30;;;3.58;;
61523;SDS011;47393;38.758;-9.164;2023-03-01T16:09:41;13.07;;;3.67;;
61523;SDS011;47393;38.758;-9.164;2023-03-01T16:11:49;14.35;;;4.45;;
61523;SDS011;47393;38.758;-9.164;2023-03-01T16:13:52;13.35;;;4.30;;
61523;SDS011;47393;38.758;-9.164;2023-03-01T16:16:01;13.02;;;3.80;;
61523;SDS011;47393;38.758;-9.164;2023-03-01T16:18:11;7.82;;;3.22;;
61523;SDS011;47393;38.758;-9.164;2023-03-01T16:20:19;5.80;;;3.20;;
61523;SDS011;47393;38.758;-9.164;2023-03-01T16:22:33;9.25;;;3.85;;
61523;SDS011;47393;38.758;-9.164;2023-03-01T16:24:37;9.90;;;3.25;;
61523;SDS011;47393;38.758;-9.164;2023-03-01T16:26:39;9.73;;;3.42;;
61523;SDS011;47393;38.758;-9.164;2023-03-01T16:28:50;4.20;;;2.70;;
61523;SDS011;47393;38.758;-9.164;2023-03-01T16:31:05;6.97;;;3.83;;
61523;SDS011;47393;38.758;-9.164;2023-03-01T16:33:12;16.55;;;3.05;;
61523;SDS011;47393;38.758;-9.164;2023-03-01T16:35:31;14.40;;;3.60;;
61523;SDS011;47393;38.758;-9.164;2023-03-01T16:37:47;10.43;;;3.50;;
61523;SDS011;47393;38.758;-9.164;2023-03-01T16:39:54;12.07;;;3.55;;
61523;SDS011;47393;38.758;-9.164;2023-03-01T16:41:59;6.82;;;3.38;;
61523;SDS011;47393;38.758;-9.164;2023-03-01T16:44:03;7.80;;;3.17;;
61523;SDS011;47393;38.758;-9.164;2023-03-01T16:46:11;8.45;;;3.65;;
61523;SDS011;47393;38.758;-9.164;2023-03-01T16:48:15;11.93;;;3.67;;
61523;SDS011;47393;38.758;-9.164;2023-03-01T16:50:19;10.85;;;3.55;;
61523;SDS011;47393;38.758;-9.164;2023-03-01T16:52:21;7.10;;;2.97;;
61523;SDS011;47393;38.758;-9.164;2023-03-01T16:54:30;7.45;;;2.63;;
61523;SDS011;47393;38.758;-9.164;2023-03-01T16:56:32;11.90;;;2.95;;
61523;SDS011;47393;38.758;-9.164;2023-03-01T16:58:37;8.65;;;3.38;;
61523;SDS011;47393;38.758;-9.164;2023-03-01T17:00:39;7.40;;;3.05;;
61523;SDS011;47393;38.758;-9.164;2023-03-01T17:02:41;7.60;;;2.50;;
61523;SDS011;47393;38.758;-9.164;2023-03-01T17:04:42;5.78;;;2.80;;
61523;SDS011;47393;38.758;-9.164;2023-03-01T17:06:46;7.47;;;2.92;;
61523;SDS011;47393;38.758;-9.164;2023-03-01T17:08:51;7.22;;;3.00;;
61523;SDS011;47393;38.758;-9.164;2023-03-01T17:10:54;8.35;;;3.28;;
61523;SDS011;47393;38.758;-9.164;2023-03-01T17:12:56;15.93;;;3.13;;
61523;SDS011;47393;38.758;-9.164;2023-03-01T17:14:58;12.20;;;3.75;;
61523;SDS011;47393;38.758;-9.164;2023-03-01T17:16:59;12.60;;;4.10;;
61523;SDS011;47393;38.758;-9.164;2023-03-01T17:21:10;5.05;;;2.80;;
61523;SDS011;47393;38.758;-9.164;2023-03-01T17:23:15;8.80;;;2.67;;
61523;SDS011;47393;38.758;-9.164;2023-03-01T17:25:17;6.95;;;2.95;;
61523;SDS011;47393;38.758;-9.164;2023-03-01T17:29:28;6.07;;;2.70;;
61523;SDS011;47393;38.758;-9.164;2023-03-01T17:31:35;6.10;;;2.78;;
61523;SDS011;47393;38.758;-9.164;2023-03-01T17:33:40;6.00;;;2.70;;
61523;SDS011;47393;38.758;-9.164;2023-03-01T17:35:49;3.95;;;3.10;;
61523;SDS011;47393;38.758;-9.164;2023-03-01T17:37:59;4.97;;;2.70;;
61523;SDS011;47393;38.758;-9.164;2023-03-01T17:40:04;10.52;;;2.97;;
61523;SDS011;47393;38.758;-9.164;2023-03-01T17:42:09;4.07;;;2.92;;
61523;SDS011;47393;38.758;-9.164;2023-03-01T17:44:11;11.68;;;3.30;;
61523;SDS011;47393;38.758;-9.164;2023-03-01T17:46:12;4.20;;;2.70;;
61523;SDS011;47393;38.758;-9.164;2023-03-01T17:48:15;3.87;;;2.27;;
61523;SDS011;47393;38.758;-9.164;2023-03-01T17:50:16;10.40;;;3.70;;
61523;SDS011;47393;38.758;-9.164;2023-03-01T17:52:17;10.35;;;3.67;;
61523;SDS011;47393;38.758;-9.164;2023-03-01T17:54:23;21.52;;;3.38;;
61523;SDS011;47393;38.758;-9.164;2023-03-01T17:56:26;13.65;;;3.65;;
61523;SDS011;47393;38.758;-9.164;2023-03-01T17:58:28;8.90;;;3.65;;
61523;SDS011;47393;38.758;-9.164;2023-03-01T18:00:32;10.98;;;4.05;;
61523;SDS011;47393;38.758;-9.164;2023-03-01T18:02:34;8.63;;;3.70;;
61523;SDS011;47393;38.758;-9.164;2023-03-01T18:04:40;10.32;;;3.83;;
61523;SDS011;47393;38.758;-9.164;2023-03-01T18:06:40;6.72;;;3.03;;
61523;SDS011;47393;38.758;-9.164;2023-03-01T18:08:43;10.98;;;4.32;;
61523;SDS011;47393;38.758;-9.164;2023-03-01T18:10:45;9.52;;;3.67;;
61523;SDS011;47393;38.758;-9.164;2023-03-01T18:12:47;6.63;;;4.18;;
61523;SDS011;47393;38.758;-9.164;2023-03-01T18:14:48;7.38;;;3.90;;
61523;SDS011;47393;38.758;-9.164;2023-03-01T18:16:54;6.05;;;3.20;;
61523;SDS011;47393;38.758;-9.164;2023-03-01T18:18:55;8.85;;;3.63;;
61523;SDS011;47393;38.758;-9.164;2023-03-01T18:20:57;7.55;;;3.67;;
61523;SDS011;47393;38.758;-9.164;2023-03-01T18:22:58;12.73;;;3.40;;
61523;SDS011;47393;38.758;-9.164;2023-03-01T18:24:59;4.38;;;4.00;;
61523;SDS011;47393;38.758;-9.164;2023-03-01T18:27:03;10.10;;;4.70;;
61523;SDS011;47393;38.758;-9.164;2023-03-01T18:29:06;5.65;;;4.00;;
61523;SDS011;47393;38.758;-9.164;2023-03-01T18:31:09;6.38;;;4.57;;
61523;SDS011;47393;38.758;-9.164;2023-03-01T18:33:10;8.63;;;4.03;;
61523;SDS011;47393;38.758;-9.164;2023-03-01T18:35:12;13.27;;;5.68;;
61523;SDS011;47393;38.758;-9.164;2023-03-01T18:37:14;17.75;;;4.78;;
61523;SDS011;47393;38.758;-9.164;2023-03-01T18:42:34;4.28;;;3.90;;
61523;SDS011;47393;38.758;-9.164;2023-03-01T18:44:56;11.35;;;4.40;;
61523;SDS011;47393;38.758;-9.164;2023-03-01T18:47:29;13.43;;;4.68;;
61523;SDS011;47393;38.758;-9.164;2023-03-01T18:49:49;4.72;;;4.18;;
61523;SDS011;47393;38.758;-9.164;2023-03-01T18:52:12;8.63;;;4.47;;
61523;SDS011;47393;38.758;-9.164;2023-03-01T18:54:31;8.10;;;4.18;;
61523;SDS011;47393;38.758;-9.164;2023-03-01T18:56:57;7.28;;;4.07;;
61523;SDS011;47393;38.758;-9.164;2023-03-01T18:59:11;9.02;;;4.55;;
61523;SDS011;47393;38.758;-9.164;2023-03-01T19:01:19;10.77;;;4.05;;
61523;SDS011;47393;38.758;-9.164;2023-03-01T19:03:19;8.88;;;4.75;;
61523;SDS011;47393;38.758;-9.164;2023-03-01T19:05:21;10.07;;;5.85;;
61523;SDS011;47393;38.758;-9.164;2023-03-01T19:07:26;7.70;;;4.80;;
61523;SDS011;47393;38.758;-9.164;2023-03-01T19:09:28;9.75;;;5.13;;
61523;SDS011;47393;38.758;-9.164;2023-03-01T19:11:30;10.88;;;4.68;;
61523;SDS011;47393;38.758;-9.164;2023-03-01T19:15:41;17.45;;;5.40;;
61523;SDS011;47393;38.758;-9.164;2023-03-01T19:17:48;7.00;;;4.60;;
61523;SDS011;47393;38.758;-9.164;2023-03-01T19:19:49;4.43;;;3.90;;
61523;SDS011;47393;38.758;-9.164;2023-03-01T19:21:53;11.63;;;4.72;;
61523;SDS011;47393;38.758;-9.164;2023-03-01T19:23:54;14.65;;;4.47;;
61523;SDS011;47393;38.758;-9.164;2023-03-01T19:26:01;16.98;;;4.57;;
61523;SDS011;47393;38.758;-9.164;2023-03-01T19:28:03;9.85;;;4.88;;
61523;SDS011;47393;38.758;-9.164;2023-03-01T19:30:10;10.23;;;4.60;;
61523;SDS011;47393;38.758;-9.164;2023-03-01T19:32:17;5.20;;;4.13;;
61523;SDS011;47393;38.758;-9.164;2023-03-01T19:34:19;9.57;;;4.63;;
61523;SDS011;47393;38.758;-9.164;2023-03-01T19:36:22;4.93;;;4.30;;